createdAt,value
2018-11-21T00:00:00.125Z,15.90
2018-11-21T00:02:34.946Z,17.87
2018-11-21T00:05:10.166Z,19.67
2018-11-21T00:07:42.980Z,21.50
2018-11-21T00:10:17.492Z,21.50
2018-11-21T00:12:53.652Z,19.40
2018-11-21T00:15:26.832Z,21.33
2018-11-21T00:17:59.667Z,21.07
2018-11-21T00:20:32.995Z,20.73
2018-11-21T00:23:06.037Z,20.87
2018-11-21T00:25:39.408Z,20.50
2018-11-21T00:28:12.156Z,18.58
2018-11-21T00:30:45.335Z,21.57
2018-11-21T00:33:18.624Z,21.50
2018-11-21T00:35:53.698Z,17.87
2018-11-21T00:38:26.953Z,22.63
2018-11-21T00:41:00.816Z,19.73
2018-11-21T00:43:34.502Z,21.40
2018-11-21T00:46:07.905Z,23.83
2018-11-21T00:48:42.272Z,19.63
2018-11-21T00:51:15.201Z,22.73
2018-11-21T00:53:48.523Z,19.97
2018-11-21T00:56:21.996Z,20.33
2018-11-21T00:58:54.752Z,20.73
2018-11-21T01:01:29.245Z,21.63
2018-11-21T01:04:02.539Z,20.67
2018-11-21T01:06:36.398Z,20.23
2018-11-21T01:09:12.997Z,22.93
2018-11-21T01:11:46.569Z,22.13
2018-11-21T01:14:19.434Z,21.27
2018-11-21T01:16:52.246Z,22.10
2018-11-21T01:19:25.346Z,20.50
2018-11-21T01:21:58.817Z,22.23
2018-11-21T01:24:31.927Z,19.20
2018-11-21T01:27:04.819Z,22.07
2018-11-21T01:29:38.608Z,23.03
2018-11-21T01:32:11.834Z,21.17
2018-11-21T01:34:44.546Z,23.47
2018-11-21T01:37:17.957Z,24.57
2018-11-21T01:39:50.696Z,22.27
2018-11-21T01:42:24.176Z,21.00
2018-11-21T01:44:57.531Z,23.53
2018-11-21T01:47:30.326Z,20.47
2018-11-21T01:50:03.097Z,24.57
2018-11-21T01:52:36.562Z,23.43
2018-11-21T01:55:09.549Z,21.87
2018-11-21T01:57:43.059Z,19.35
2018-11-21T02:00:19.206Z,20.63
2018-11-21T02:02:52.692Z,22.10
2018-11-21T02:05:25.536Z,22.40
2018-11-21T02:07:58.945Z,20.40
2018-11-21T02:10:32.069Z,20.47
2018-11-21T02:13:05.089Z,24.43
2018-11-21T02:15:38.532Z,21.37
2018-11-21T02:18:11.469Z,22.43
2018-11-21T02:20:44.278Z,20.37
2018-11-21T02:23:17.677Z,20.87
2018-11-21T02:25:50.461Z,20.40
2018-11-21T02:28:24.437Z,22.77
2018-11-21T02:30:58.926Z,21.42
2018-11-21T02:33:33.046Z,21.23
2018-11-21T02:36:06.642Z,23.00
2018-11-21T02:38:40.094Z,23.73
2018-11-21T02:41:12.890Z,22.53
2018-11-21T02:43:46.693Z,22.83
2018-11-21T02:46:20.195Z,24.50
2018-11-21T02:48:53.352Z,25.57
2018-11-21T02:51:26.273Z,23.63
2018-11-21T02:54:00.044Z,26.37
2018-11-21T02:56:55.197Z,25.00
2018-11-21T02:59:28.158Z,25.70
2018-11-21T03:02:01.604Z,25.13
2018-11-21T03:04:34.663Z,25.07
2018-11-21T03:07:07.787Z,23.63
2018-11-21T03:09:42.134Z,24.77
2018-11-21T03:12:15.366Z,25.17
2018-11-21T03:14:48.713Z,25.73
2018-11-21T03:17:23.081Z,25.67
2018-11-21T03:19:55.941Z,26.13
2018-11-21T03:22:28.691Z,25.37
2018-11-21T03:25:03.076Z,28.07
2018-11-21T03:27:35.944Z,26.33
2018-11-21T03:30:12.337Z,27.17
2018-11-21T03:32:45.606Z,27.53
2018-11-21T03:35:18.502Z,24.57
2018-11-21T03:37:51.317Z,24.90
2018-11-21T03:40:24.117Z,24.47
2018-11-21T03:42:57.759Z,29.93
2018-11-21T03:45:30.802Z,30.67
2018-11-21T03:48:03.779Z,26.87
2018-11-21T03:50:37.070Z,26.87
2018-11-21T03:53:10.160Z,27.77
2018-11-21T03:55:43.058Z,28.17
2018-11-21T03:58:16.211Z,30.90
2018-11-21T04:00:49.472Z,31.17
2018-11-21T04:03:22.208Z,32.97
2018-11-21T04:05:56.709Z,31.27
2018-11-21T04:08:29.441Z,31.93
2018-11-21T04:11:02.253Z,29.37
2018-11-21T04:13:35.684Z,30.37
2018-11-21T04:16:08.692Z,27.83
2018-11-21T04:18:41.574Z,30.60
2018-11-21T04:21:14.955Z,30.70
2018-11-21T04:23:47.757Z,31.90
2018-11-21T04:26:20.648Z,31.43
2018-11-21T04:28:53.954Z,31.60
2018-11-21T04:31:26.766Z,32.53
2018-11-21T04:33:59.763Z,29.70
2018-11-21T04:36:33.142Z,32.10
2018-11-21T04:41:44.261Z,35.60
2018-11-21T04:44:18.915Z,35.63
2018-11-21T04:46:52.945Z,36.47
2018-11-21T04:49:25.822Z,41.83
2018-11-21T04:51:59.744Z,40.00
2018-11-21T04:54:32.621Z,39.80
2018-11-21T04:57:05.558Z,36.13
2018-11-21T04:59:38.733Z,35.40
2018-11-21T05:02:11.541Z,35.37
2018-11-21T05:04:44.417Z,36.93
2018-11-21T05:07:21.280Z,33.03
2018-11-21T05:09:54.656Z,29.47
2018-11-21T05:12:27.416Z,34.63
2018-11-21T05:15:00.183Z,32.13
2018-11-21T05:17:36.662Z,29.77
2018-11-21T05:20:09.595Z,29.93
2018-11-21T05:22:43.456Z,31.57
2018-11-21T05:25:17.950Z,36.07
2018-11-21T05:27:50.817Z,34.53
2018-11-21T05:30:24.398Z,38.17
2018-11-21T05:32:58.070Z,39.00
2018-11-21T05:35:31.423Z,40.33
2018-11-21T05:38:05.941Z,41.97
2018-11-21T05:40:39.100Z,40.03
2018-11-21T05:43:13.998Z,34.53
2018-11-21T05:45:48.445Z,37.20
2018-11-21T05:48:21.786Z,34.73
2018-11-21T05:50:55.416Z,35.60
2018-11-21T05:53:28.369Z,39.63
2018-11-21T05:56:02.361Z,32.13
2018-11-21T05:58:35.341Z,40.80
2018-11-21T06:01:09.277Z,40.17
2018-11-21T06:03:42.349Z,40.70
2018-11-21T06:06:15.261Z,49.27
2018-11-21T06:08:48.557Z,48.40
2018-11-21T06:11:21.664Z,53.57
2018-11-21T06:13:54.605Z,51.80
2018-11-21T06:16:27.439Z,42.93
2018-11-21T06:19:00.292Z,38.80
2018-11-21T06:21:33.733Z,50.57
2018-11-21T06:24:06.567Z,48.53
2018-11-21T06:26:40.708Z,50.60
2018-11-21T06:29:15.687Z,48.67
2018-11-21T06:31:49.919Z,66.33
2018-11-21T06:34:23.691Z,67.87
2018-11-21T06:36:56.489Z,56.70
2018-11-21T06:39:30.065Z,49.00
2018-11-21T06:42:02.949Z,56.63
2018-11-21T06:44:36.507Z,41.88
2018-11-21T06:47:12.243Z,57.08
2018-11-21T06:49:45.747Z,51.50
2018-11-21T06:52:22.268Z,46.37
2018-11-21T06:54:53.417Z,50.87
2018-11-21T06:57:26.381Z,60.40
2018-11-21T06:59:59.438Z,44.37
2018-11-21T07:02:32.739Z,54.93
2018-11-21T07:05:27.999Z,58.10
2018-11-21T07:08:01.455Z,60.83
2018-11-21T07:10:36.111Z,54.93
2018-11-21T07:13:11.186Z,65.97
2018-11-21T07:15:42.996Z,71.83
2018-11-21T07:18:26.641Z,70.00
2018-11-21T07:21:00.461Z,95.33
2018-11-21T07:23:35.330Z,76.97
2018-11-21T07:26:09.078Z,59.93
2018-11-21T07:28:41.923Z,69.18
2018-11-21T07:31:15.565Z,69.87
2018-11-21T07:33:48.785Z,72.77
2018-11-21T07:36:22.304Z,60.27
2018-11-21T07:38:55.744Z,76.95
2018-11-21T07:41:29.488Z,77.97
2018-11-21T07:44:03.125Z,66.17
2018-11-21T07:46:36.849Z,64.63
2018-11-21T07:49:10.414Z,66.83
2018-11-21T07:51:43.768Z,66.10
2018-11-21T07:54:17.141Z,77.10
2018-11-21T07:57:33.432Z,57.13
2018-11-21T08:00:42.949Z,58.80
2018-11-21T08:03:16.576Z,57.53
2018-11-21T08:05:54.313Z,52.90
2018-11-21T08:08:41.626Z,47.92
2018-11-21T08:11:32.489Z,69.30
2018-11-21T08:14:12.352Z,74.90
2018-11-21T08:17:08.193Z,76.10
2018-11-21T08:20:01.611Z,70.83
2018-11-21T08:22:45.537Z,78.93
2018-11-21T08:25:44.036Z,68.85
2018-11-21T08:28:24.191Z,54.85
2018-11-21T08:30:57.940Z,57.45
2018-11-21T08:33:34.139Z,47.60
2018-11-21T08:36:05.736Z,45.30
2018-11-21T08:38:39.204Z,45.65
2018-11-21T08:43:49.369Z,45.50
2018-11-21T08:46:23.194Z,51.07
2018-11-21T08:49:00.461Z,48.00
2018-11-21T08:51:34.688Z,50.60
2018-11-21T08:54:10.826Z,57.87
2018-11-21T08:56:46.128Z,62.97
2018-11-21T08:59:19.153Z,60.33
2018-11-21T09:01:52.839Z,54.17
2018-11-21T09:04:26.597Z,53.45
2018-11-21T09:07:00.266Z,53.13
2018-11-21T09:09:33.602Z,51.57
2018-11-21T09:12:09.411Z,49.43
2018-11-21T09:14:44.757Z,46.07
2018-11-21T09:17:19.277Z,42.60
2018-11-21T09:19:54.253Z,43.30
2018-11-21T09:22:28.268Z,39.90
2018-11-21T09:25:01.532Z,42.65
2018-11-21T09:27:41.008Z,50.57
2018-11-21T09:30:18.483Z,44.40
2018-11-21T09:32:54.042Z,48.45
2018-11-21T09:35:29.624Z,42.97
2018-11-21T09:38:06.455Z,35.33
2018-11-21T09:40:39.239Z,39.73
2018-11-21T09:43:15.292Z,40.97
2018-11-21T09:45:48.578Z,35.08
2018-11-21T09:48:24.152Z,39.90
2018-11-21T09:50:57.970Z,36.33
2018-11-21T09:53:34.012Z,32.40
2018-11-21T09:56:08.118Z,32.90
2018-11-21T09:58:43.033Z,32.97
2018-11-21T10:01:38.667Z,34.03
2018-11-21T10:04:16.822Z,28.80
2018-11-21T10:06:49.781Z,31.47
2018-11-21T10:09:27.250Z,30.80
2018-11-21T10:12:00.431Z,29.40
2018-11-21T10:14:33.432Z,27.67
2018-11-21T10:17:10.081Z,29.10
2018-11-21T10:19:43.991Z,28.43
2018-11-21T10:22:17.531Z,25.70
2018-11-21T10:24:50.931Z,28.67
2018-11-21T10:27:23.942Z,24.87
2018-11-21T10:29:58.297Z,28.03
2018-11-21T10:32:33.444Z,28.40
2018-11-21T10:35:11.740Z,26.63
2018-11-21T10:37:44.227Z,24.77
2018-11-21T10:40:17.624Z,26.83
2018-11-21T10:42:51.857Z,28.87
2018-11-21T10:45:25.740Z,28.33
2018-11-21T10:47:59.455Z,26.80
2018-11-21T10:50:32.722Z,25.50
2018-11-21T10:53:06.273Z,26.50
2018-11-21T10:55:39.698Z,28.27
2018-11-21T10:58:15.520Z,25.53
2018-11-21T11:00:55.820Z,25.57
2018-11-21T11:03:31.788Z,25.47
2018-11-21T11:06:19.150Z,22.83
2018-11-21T11:09:17.431Z,22.17
2018-11-21T11:12:12.191Z,20.67
2018-11-21T11:14:51.388Z,19.90
2018-11-21T11:17:44.532Z,22.07
2018-11-21T11:20:32.767Z,24.37
2018-11-21T11:23:16.457Z,21.60
2018-11-21T11:26:11.819Z,19.33
2018-11-21T11:28:53.429Z,18.73
2018-11-21T11:31:49.537Z,20.53
2018-11-21T11:34:28.998Z,19.90
2018-11-21T11:37:06.968Z,18.60
2018-11-21T11:40:00.656Z,22.60
2018-11-21T11:42:56.783Z,18.85
2018-11-21T11:45:35.353Z,20.35
2018-11-21T11:48:21.704Z,20.60
2018-11-21T11:51:02.587Z,19.33
2018-11-21T11:53:55.630Z,21.90
2018-11-21T11:56:41.990Z,20.80
2018-11-21T11:59:27.003Z,20.20
2018-11-21T12:02:22.578Z,20.93
2018-11-21T12:05:22.332Z,18.25
2018-11-21T12:08:19.076Z,20.08
2018-11-21T12:11:12.749Z,18.40
2018-11-21T12:13:51.945Z,20.60
2018-11-21T12:16:48.325Z,19.30
2018-11-21T12:19:56.022Z,18.92
2018-11-21T12:22:54.610Z,19.80
2018-11-21T12:25:49.158Z,18.73
2018-11-21T12:28:43.232Z,18.87
2018-11-21T12:31:21.690Z,19.13
2018-11-21T12:34:00.056Z,19.47
2018-11-21T12:36:52.870Z,18.20
2018-11-21T12:40:04.556Z,17.83
2018-11-21T12:42:42.947Z,17.17
2018-11-21T12:45:39.207Z,20.27
2018-11-21T12:48:41.898Z,17.20
2018-11-21T12:51:32.384Z,19.80
2018-11-21T12:54:12.003Z,20.50
2018-11-21T12:56:51.633Z,18.17
2018-11-21T12:59:42.677Z,20.83
2018-11-21T13:02:38.360Z,16.97
2018-11-21T13:05:35.876Z,19.02
2018-11-21T13:08:31.385Z,19.67
2018-11-21T13:11:39.180Z,19.23
2018-11-21T13:14:29.369Z,17.77
2018-11-21T13:17:08.256Z,19.13
2018-11-21T13:20:01.152Z,21.10
2018-11-21T13:22:42.024Z,20.03
2018-11-21T13:25:22.457Z,20.67
2018-11-21T13:28:10.698Z,19.57
2018-11-21T13:31:01.402Z,20.30
2018-11-21T13:33:40.216Z,21.87
2018-11-21T13:36:19.275Z,21.83
2018-11-21T13:38:59.141Z,22.70
2018-11-21T13:41:39.456Z,24.23
2018-11-21T13:44:21.839Z,25.67
2018-11-21T13:47:10.044Z,22.17
2018-11-21T13:50:03.158Z,22.67
2018-11-21T13:53:01.719Z,23.00
2018-11-21T13:55:36.920Z,21.73
2018-11-21T13:58:11.601Z,23.37
2018-11-21T14:00:46.916Z,22.67
2018-11-21T14:03:21.929Z,21.97
2018-11-21T14:05:55.696Z,23.07
2018-11-21T14:08:28.668Z,24.07
2018-11-21T14:11:04.183Z,37.10
2018-11-21T14:13:40.708Z,21.70
2018-11-21T14:16:14.961Z,25.43
2018-11-21T14:18:51.344Z,22.65
2018-11-21T14:21:28.122Z,22.70
2018-11-21T14:24:01.148Z,23.77
2018-11-21T14:26:43.765Z,23.47
2018-11-21T14:29:21.700Z,23.70
2018-11-21T14:31:59.335Z,25.77
2018-11-21T14:34:37.971Z,24.50
2018-11-21T14:37:19.330Z,22.17
2018-11-21T14:39:55.295Z,28.07
2018-11-21T14:42:29.752Z,21.70
2018-11-21T14:45:08.730Z,26.33
2018-11-21T14:47:47.827Z,25.37
2018-11-21T14:50:28.672Z,22.67
2018-11-21T14:53:03.475Z,26.03
2018-11-21T14:55:38.960Z,26.23
2018-11-21T14:58:16.992Z,26.50
2018-11-21T15:00:52.089Z,26.53
2018-11-21T15:03:28.896Z,25.03
2018-11-21T15:06:03.113Z,27.63
2018-11-21T15:08:37.607Z,25.70
2018-11-21T15:11:12.847Z,25.90
2018-11-21T15:13:48.583Z,27.50
2018-11-21T15:16:23.481Z,24.73
2018-11-21T15:18:57.190Z,25.13
2018-11-21T15:21:31.837Z,25.77
2018-11-21T15:24:06.287Z,27.30
2018-11-21T15:26:43.093Z,26.40
2018-11-21T15:29:20.617Z,28.20
2018-11-21T15:31:58.039Z,26.07
2018-11-21T15:34:35.773Z,26.27
2018-11-21T15:37:09.907Z,30.73
2018-11-21T15:39:43.674Z,28.17
2018-11-21T15:42:17.711Z,26.23
2018-11-21T15:44:52.303Z,27.23
2018-11-21T15:47:26.690Z,29.47
2018-11-21T15:50:05.275Z,30.33
2018-11-21T15:52:40.973Z,28.27
2018-11-21T15:55:16.254Z,29.10
2018-11-21T15:57:50.667Z,25.97
2018-11-21T16:00:29.827Z,28.80
2018-11-21T16:03:06.790Z,30.37
2018-11-21T16:05:40.361Z,27.23
2018-11-21T16:08:16.416Z,26.60
2018-11-21T16:10:56.534Z,30.27
2018-11-21T16:13:30.247Z,28.87
2018-11-21T16:16:05.451Z,28.40
2018-11-21T16:18:42.784Z,28.73
2018-11-21T16:21:17.335Z,28.48
2018-11-21T16:23:52.193Z,29.57
2018-11-21T16:26:28.015Z,30.97
2018-11-21T16:29:06.919Z,28.73
2018-11-21T16:31:43.631Z,29.67
2018-11-21T16:34:38.441Z,29.30
2018-11-21T16:37:17.656Z,33.53
2018-11-21T16:39:51.435Z,33.17
2018-11-21T16:42:27.197Z,39.00
2018-11-21T16:45:05.094Z,29.08
2018-11-21T16:47:38.680Z,35.20
2018-11-21T16:50:16.968Z,31.80
2018-11-21T16:52:52.417Z,32.37
2018-11-21T16:55:27.269Z,34.30
2018-11-21T16:58:04.337Z,33.13
2018-11-21T17:00:38.841Z,27.73
2018-11-21T17:03:19.273Z,36.57
2018-11-21T17:05:53.180Z,36.37
2018-11-21T17:08:29.213Z,32.40
2018-11-21T17:11:03.262Z,37.77
2018-11-21T17:13:42.993Z,42.40
2018-11-21T17:16:16.409Z,39.17
2018-11-21T17:18:55.406Z,39.37
2018-11-21T17:21:30.697Z,35.67
2018-11-21T17:24:04.983Z,37.60
2018-11-21T17:26:39.302Z,41.83
2018-11-21T17:29:12.562Z,37.87
2018-11-21T17:31:48.291Z,43.73
2018-11-21T17:34:22.324Z,42.93
2018-11-21T17:36:56.058Z,49.23
2018-11-21T17:39:31.219Z,42.17
2018-11-21T17:42:07.882Z,45.63
2018-11-21T17:44:41.018Z,40.70
2018-11-21T17:47:16.987Z,43.73
2018-11-21T17:49:52.510Z,40.50
2018-11-21T17:52:27.625Z,37.17
2018-11-21T17:55:02.340Z,33.38
2018-11-21T17:57:36.663Z,32.73
2018-11-21T18:00:20.639Z,36.37
2018-11-21T18:02:57.788Z,36.93
2018-11-21T18:05:35.114Z,36.30
2018-11-21T18:08:09.894Z,35.47
2018-11-21T18:10:48.017Z,35.57
2018-11-21T18:13:21.137Z,36.80
2018-11-21T18:15:55.181Z,33.07
2018-11-21T18:18:39.129Z,33.20
2018-11-21T18:21:19.760Z,33.50
2018-11-21T18:23:47.148Z,32.23
2018-11-21T18:26:21.374Z,34.60
2018-11-21T18:28:58.086Z,29.13
2018-11-21T18:31:32.104Z,32.50
2018-11-21T18:34:06.200Z,33.63
2018-11-21T18:36:42.627Z,31.12
2018-11-21T18:39:16.804Z,33.17
2018-11-21T18:41:57.986Z,30.13
2018-11-21T18:44:27.979Z,30.87
2018-11-21T18:47:05.905Z,28.10
2018-11-21T18:49:39.544Z,30.90
2018-11-21T18:52:16.861Z,32.27
2018-11-21T18:54:52.133Z,30.67
2018-11-21T18:57:47.412Z,31.67
2018-11-21T19:00:26.611Z,32.33
2018-11-21T19:03:02.205Z,29.60
2018-11-21T19:05:38.854Z,30.03
2018-11-21T19:08:13.876Z,29.60
2018-11-21T19:10:51.373Z,30.10
2018-11-21T19:13:28.394Z,30.33
2018-11-21T19:16:12.275Z,30.03
2018-11-21T19:18:48.467Z,29.00
2018-11-21T19:21:22.593Z,27.13
2018-11-21T19:23:57.807Z,29.40
2018-11-21T19:26:34.111Z,28.43
2018-11-21T19:29:08.807Z,28.33
2018-11-21T19:31:57.186Z,28.13
2018-11-21T19:34:30.502Z,32.27
2018-11-21T19:37:04.703Z,30.07
2018-11-21T19:39:38.082Z,31.67
2018-11-21T19:42:12.514Z,29.40
2018-11-21T19:44:51.765Z,27.83
2018-11-21T19:47:26.607Z,25.83
2018-11-21T19:50:08.093Z,27.48
2018-11-21T19:52:42.790Z,28.73
2018-11-21T19:55:21.587Z,27.50
2018-11-21T19:57:55.827Z,28.87
2018-11-21T20:00:33.723Z,28.03
2018-11-21T20:03:10.265Z,31.63
2018-11-21T20:05:49.278Z,34.67
2018-11-21T20:08:22.805Z,27.97
2018-11-21T20:10:56.649Z,25.70
2018-11-21T20:13:32.147Z,29.20
2018-11-21T20:16:06.876Z,27.83
2018-11-21T20:18:40.172Z,27.97
2018-11-21T20:21:14.605Z,25.67
2018-11-21T20:23:47.793Z,27.33
2018-11-21T20:26:21.177Z,27.47
2018-11-21T20:28:58.093Z,26.10
2018-11-21T20:31:31.586Z,26.57
2018-11-21T20:34:05.772Z,26.27
2018-11-21T20:36:40.370Z,25.15
2018-11-21T20:39:15.976Z,25.23
2018-11-21T20:41:51.501Z,22.83
2018-11-21T20:44:25.601Z,26.57
2018-11-21T20:47:00.476Z,27.73
2018-11-21T20:49:36.846Z,24.47
2018-11-21T20:52:12.830Z,25.40
2018-11-21T20:54:50.345Z,24.87
2018-11-21T20:57:29.506Z,26.03
2018-11-21T21:00:07.423Z,27.83
2018-11-21T21:02:41.516Z,29.93
2018-11-21T21:05:17.485Z,29.37
2018-11-21T21:07:55.783Z,31.97
2018-11-21T21:10:32.341Z,26.73
2018-11-21T21:13:06.578Z,27.30
2018-11-21T21:15:40.990Z,26.33
2018-11-21T21:18:19.621Z,29.17
2018-11-21T21:20:53.988Z,27.17
2018-11-21T21:23:28.866Z,28.60
2018-11-21T21:26:04.645Z,26.90
2018-11-21T21:28:40.815Z,28.17
2018-11-21T21:31:16.153Z,27.63
2018-11-21T21:33:49.911Z,27.87
2018-11-21T21:36:26.275Z,28.00
2018-11-21T21:38:59.540Z,29.27
2018-11-21T21:41:34.435Z,31.57
2018-11-21T21:44:09.389Z,29.47
2018-11-21T21:46:42.738Z,28.00
2018-11-21T21:49:20.124Z,27.13
2018-11-21T21:51:53.385Z,27.65
2018-11-21T21:54:39.606Z,28.33
2018-11-21T21:57:14.557Z,30.10
2018-11-21T21:59:47.849Z,26.00
2018-11-21T22:02:24.847Z,26.40
2018-11-21T22:05:01.158Z,28.30
2018-11-21T22:07:36.944Z,29.57
2018-11-21T22:10:14.144Z,29.40
2018-11-21T22:12:53.110Z,29.63
2018-11-21T22:15:36.990Z,28.33
2018-11-21T22:18:15.617Z,27.73
2018-11-21T22:20:49.387Z,27.97
2018-11-21T22:23:22.961Z,27.90
2018-11-21T22:25:59.095Z,27.20
2018-11-21T22:28:33.968Z,25.83
2018-11-21T22:31:09.824Z,28.33
2018-11-21T22:33:48.105Z,26.97
2018-11-21T22:36:21.721Z,25.67
2018-11-21T22:38:56.721Z,26.47
2018-11-21T22:41:31.278Z,24.70
2018-11-21T22:44:05.278Z,25.87
2018-11-21T22:46:38.982Z,26.93
2018-11-21T22:49:12.821Z,25.30
2018-11-21T22:51:47.718Z,26.33
2018-11-21T22:54:23.298Z,22.80
2018-11-21T22:56:56.938Z,25.77
2018-11-21T22:59:33.002Z,26.73
2018-11-21T23:02:08.508Z,23.97
2018-11-21T23:04:42.548Z,22.30
2018-11-21T23:07:15.532Z,22.45
2018-11-21T23:09:49.318Z,23.30
2018-11-21T23:12:24.607Z,23.17
2018-11-21T23:14:57.312Z,25.00
2018-11-21T23:17:31.985Z,22.87
2018-11-21T23:20:11.396Z,25.80
2018-11-21T23:22:45.521Z,22.53
2018-11-21T23:25:18.964Z,23.87
2018-11-21T23:27:52.633Z,21.27
2018-11-21T23:30:26.833Z,23.27
2018-11-21T23:33:03.611Z,23.13
2018-11-21T23:35:37.576Z,23.70
2018-11-21T23:38:11.286Z,24.73
2018-11-21T23:40:45.428Z,25.50
2018-11-21T23:43:18.271Z,22.87
2018-11-21T23:45:51.473Z,24.30
2018-11-21T23:48:29.629Z,22.87
2018-11-21T23:51:04.191Z,22.73
2018-11-21T23:53:37.617Z,23.97
2018-11-21T23:56:11.379Z,25.80
2018-11-21T23:58:44.168Z,21.83
